Latest Weather Observations for kunanyi / Mount Wellington

IDT60801

Issued at 2:31 am EDT Saturday 16 November 2019 (issued every 10 minutes, with the page automatically refreshed every 10 minutes)

About weather observations | Map of weather stations | Latest weather observations for TAS | Other Formats
Station Details ID: 094087 Name: KUNANYI (MOUNT WELLINGTON PINNACLE) Lat: -42.90 Lon: 147.24 Height: 1260.47 m
Data from the previous 72 hours. | See also: Recent months at kunanyi / Mount Wellington
Date/Time
EDT
Temp
°C
App
Temp
°C
Dew
Point
°C
Rel
Hum
%
Delta-T
°C
Wind Press
QNH
hPa
Press
MSL
hPa
Rain since
9am
mm
Dir  Spd
km/h
Gust
km/h
Spd
kts
Gust
kts
16/02:30am -2.2 -16.1 -2.5 98 0.0 WSW 61 87 33 47 - - 0.2
16/02:01am -1.9 -16.2 -2.2 98 0.0 WSW 63 82 34 44 - - 0.2
16/02:00am -1.9 -16.5 -2.2 98 0.0 WSW 65 82 35 44 - - 0.2
16/01:39am -2.1 -16.4 -2.4 98 0.0 WSW 63 87 34 47 - - 0.2
16/01:30am -2.1 -16.0 -2.4 98 0.0 WSW 61 74 33 40 - - 0.2
16/01:00am -1.9 -12.9 -2.2 98 0.0 WSW 46 67 25 36 - - 0.2
16/12:39am -1.9 -12.9 -2.2 98 0.0 WSW 46 69 25 37 - - 0.2
16/12:30am -1.8 -12.2 -2.1 98 0.0 WSW 43 61 23 33 - - 0.2
16/12:00am -2.0 -12.5 -2.3 98 0.0 WSW 43 54 23 29 - - 0.2
 
Date/Time
EDT
Temp
°C
App
Temp
°C
Dew
Point
°C
Rel
Hum
%
Delta-T
°C
Wind Press
QNH
hPa
Press
MSL
hPa
Rain since
9am
mm
Dir  Spd
km/h
Gust
km/h
Spd
kts
Gust
kts
15/11:31pm -2.2 -14.0 -2.5 98 0.0 WSW 50 70 27 38 - - 0.2
15/11:30pm -2.2 -14.4 -2.5 98 0.0 WSW 52 70 28 38 - - 0.2
15/11:03pm -2.0 -13.0 -2.3 98 0.0 WSW 46 69 25 37 - - 0.2
15/11:00pm -1.8 -12.4 -2.1 98 0.0 WSW 44 61 24 33 - - 0.2
15/10:59pm -1.8 -12.2 -2.1 98 0.0 WSW 43 61 23 33 - - 0.2
15/10:30pm -1.8 -11.1 -2.1 98 0.0 WSW 37 52 20 28 - - 0.2
15/10:00pm -1.5 -12.4 -1.6 99 0.0 WSW 46 57 25 31 - - 0.0
15/09:38pm -1.5 -14.6 -1.8 98 0.0 WSW 57 76 31 41 - - 0.0
15/09:30pm -1.6 -14.7 -1.9 98 0.0 WSW 57 74 31 40 - - 0.0
15/09:02pm -1.3 -13.4 -1.6 98 0.0 WSW 52 85 28 46 - - 0.0
15/09:00pm -1.4 -13.1 -1.7 98 0.0 WSW 50 65 27 35 - - 0.0
15/08:33pm -1.4 -15.6 -1.7 98 0.0 WSW 63 82 34 44 - - 0.0
15/08:30pm -1.5 -16.1 -1.8 98 0.0 WSW 65 80 35 43 - - 0.0
15/08:04pm -1.4 -14.8 -1.7 98 0.0 WSW 59 80 32 43 - - 0.0
15/08:00pm -1.4 -14.8 -1.7 98 0.0 WSW 59 76 32 41 - - 0.0
15/07:31pm -1.2 -16.7 -1.6 97 0.1 WSW 70 89 38 48 - - 0.0
15/07:30pm -1.2 -17.1 -1.6 97 0.1 WSW 72 91 39 49 - - 0.0
15/07:00pm -1.0 -17.7 -1.7 95 0.2 WSW 76 95 41 51 - - 0.0
15/06:30pm -1.0 -18.1 -1.8 94 0.2 WSW 78 96 42 52 - - 0.0
15/06:00pm -0.6 -17.0 -2.3 88 0.6 WSW 74 93 40 50 - - 0.0
15/05:38pm -0.5 -14.3 -1.6 92 0.4 WSW 61 82 33 44 - - 0.0
15/05:30pm 0.0 -14.6 -1.7 88 0.6 WSW 65 80 35 43 - - 0.0
15/05:13pm 0.6 -12.5 -1.8 84 0.9 WSW 57 80 31 43 - - 0.0
15/05:02pm 1.3 -9.6 -1.4 82 1.0 WSW 46 67 25 36 - - 0.0
15/05:00pm 1.5 -9.3 -0.6 86 0.8 WSW 46 59 25 32 - - 0.0
15/04:36pm 0.9 -11.1 -1.0 87 0.7 W 52 72 28 39 - - 0.0
15/04:30pm 1.2 -10.8 -0.7 87 0.7 WSW 52 69 28 37 - - 0.0
15/04:00pm 0.9 -12.6 -2.3 79 1.2 WSW 59 83 32 45 - - 0.0
15/03:38pm 1.4 -13.2 -2.0 78 1.3 WSW 65 85 35 46 - - 0.0
15/03:30pm -0.1 -15.7 -3.5 78 1.2 WSW 69 83 37 45 - - 0.0
15/03:00pm -0.5 -15.8 -1.2 95 0.2 WSW 69 87 37 47 - - 0.0
15/02:36pm 0.7 -13.3 0.0 95 0.3 WSW 63 83 34 45 - - 0.0
15/02:30pm 0.2 -13.4 -0.4 96 0.2 WSW 61 78 33 42 - - 0.0
15/02:00pm -0.1 -11.7 -0.5 97 0.2 WSW 50 70 27 38 - - 0.0
15/01:30pm 1.1 -8.9 -1.5 83 1.0 WSW 41 69 22 37 - - 0.0
15/01:00pm 2.3 -9.8 -2.0 73 1.6 WSW 52 70 28 38 - - 0.0
15/12:30pm 2.9 -10.9 -2.0 70 1.9 WSW 61 83 33 45 - - 0.0
15/12:00pm 3.9 -8.8 -0.7 72 1.9 W 56 76 30 41 - - 0.0
15/11:30am 2.0 -10.3 -0.2 85 0.9 WSW 54 72 29 39 - - 0.0
15/11:00am 2.0 -8.5 -0.9 81 1.1 W 44 70 24 38 - - 0.0
15/10:30am 2.4 -9.7 -1.7 74 1.6 W 52 70 28 38 - - 0.0
15/10:00am 3.0 -9.9 -2.1 69 2.0 W 56 76 30 41 - - 0.0
15/09:30am 2.2 -11.9 -3.9 64 2.3 W 61 85 33 46 - - 0.0
15/09:00am 1.6 -11.0 -2.5 74 1.5 W 54 82 29 44 - - 0.0
15/08:50am 1.2 -13.5 -3.1 73 1.6 W 65 96 35 52 - - 0.0
15/08:31am 0.5 -11.1 -0.8 91 0.5 W 50 72 27 39 - - 0.0
15/08:30am 0.4 -10.8 -0.6 93 0.4 W 48 67 26 36 - - 0.0
15/08:01am 0.6 -11.0 -0.5 92 0.4 W 50 69 27 37 - - 0.0
15/08:00am 0.5 -11.5 -0.8 91 0.5 W 52 69 28 37 - - 0.0
15/07:30am 0.7 -11.8 -1.7 84 0.9 WSW 54 76 29 41 - - 0.0
15/07:00am 0.6 -12.4 -2.8 78 1.3 W 56 87 30 47 - - 0.0
15/06:30am 0.5 -12.7 -2.7 79 1.2 W 57 82 31 44 - - 0.0
15/06:11am 0.3 -12.0 -3.6 75 1.4 WSW 52 96 28 52 - - 0.0
15/06:00am 0.4 -11.4 -2.3 82 1.0 WSW 50 76 27 41 - - 0.0
15/05:30am 0.6 -11.1 -1.3 87 0.8 WSW 50 72 27 39 - - 0.0
15/05:17am 0.5 -12.8 -1.1 89 0.6 WSW 59 87 32 47 - - 0.0
15/05:16am 0.4 -12.6 -1.0 90 0.6 WSW 57 87 31 47 - - 0.0
15/05:00am 0.6 -14.7 -1.3 87 0.8 WSW 69 93 37 50 - - 0.0
15/04:30am 0.8 -16.5 -1.0 88 0.7 WSW 80 115 43 62 - - 0.0
15/04:00am 0.9 -17.0 -1.3 85 0.8 WSW 83 113 45 61 - - 0.0
15/03:30am 1.2 -18.9 -0.4 89 0.6 WSW 95 126 51 68 - - 0.0
15/03:00am 1.0 -19.3 -0.5 90 0.6 WSW 96 133 52 72 - - 0.0
15/02:30am 1.3 -19.4 -0.9 85 0.9 WSW 98 126 53 68 - - 0.0
15/02:00am 1.2 -20.7 -1.4 83 1.0 WSW 104 132 56 71 - - 0.0
15/01:30am 1.1 -20.2 0.1 93 0.4 W 102 128 55 69 - - 0.0
15/01:00am 2.2 -17.6 1.3 94 0.4 W 95 117 51 63 - - 0.0
15/12:30am 2.6 -17.5 1.0 89 0.7 W 96 128 52 69 - - 0.0
15/12:00am 2.8 -16.9 -0.5 79 1.3 W 93 139 50 75 - - 0.0
 
Date/Time
EDT
Temp
°C
App
Temp
°C
Dew
Point
°C
Rel
Hum
%
Delta-T
°C
Wind Press
QNH
hPa
Press
MSL
hPa
Rain since
9am
mm
Dir  Spd
km/h
Gust
km/h
Spd
kts
Gust
kts
14/11:53pm 3.1 -16.1 0.3 82 1.1 W 91 139 49 75 - - 0.0
14/11:30pm 2.7 -16.3 2.0 95 0.3 W 91 119 49 64 - - 0.0
14/11:00pm 3.4 -16.1 1.3 86 0.9 W 93 120 50 65 - - 0.0
14/10:30pm 3.2 -15.9 1.1 86 0.9 W 91 130 49 70 - - 0.0
14/10:00pm 2.5 -16.5 1.5 93 0.4 W 91 126 49 68 - - 0.0
14/09:30pm 2.5 -14.8 1.6 94 0.4 W 82 109 44 59 - - 0.0
14/09:00pm 2.6 -14.0 1.4 92 0.5 W 78 107 42 58 - - 0.0
14/08:30pm 2.9 -12.8 1.9 93 0.4 WNW 74 107 40 58 - - 0.0
14/08:00pm 3.1 -12.3 1.8 91 0.6 WNW 72 95 39 51 - - 0.0
14/07:30pm 3.3 -12.1 1.5 88 0.8 W 72 104 39 56 - - 0.0
14/07:24pm 3.3 -11.6 1.5 88 0.8 W 69 104 37 56 - - 0.0
14/07:00pm 3.5 -10.2 1.9 89 0.7 W 63 83 34 45 - - 0.0
14/06:30pm 3.8 -11.0 1.8 87 0.9 W 69 100 37 54 - - 0.0
14/06:00pm 4.4 -10.5 1.4 81 1.3 WNW 69 93 37 50 - - 0.0
14/05:30pm 4.6 -10.8 1.6 81 1.3 WNW 72 95 39 51 - - 0.0
14/05:07pm 4.4 -9.7 1.6 82 1.2 WNW 65 93 35 50 - - 0.0
14/05:06pm 4.5 -9.6 1.5 81 1.3 WNW 65 93 35 50 - - 0.0
14/05:00pm 4.9 -7.9 2.3 83 1.1 W 59 83 32 45 - - 0.0
14/04:30pm 5.0 -7.6 1.5 78 1.5 W 57 95 31 51 - - 0.0
14/04:00pm 4.8 -7.6 2.5 85 1.0 WNW 57 85 31 46 - - 0.0
14/03:31pm 5.1 -9.8 1.4 77 1.6 W 69 89 37 48 - - 0.0
14/03:30pm 5.4 -9.7 1.5 76 1.7 W 70 89 38 48 - - 0.0
14/03:00pm 5.6 -8.1 1.9 77 1.6 W 63 87 34 47 - - 0.0
14/02:30pm 5.8 -6.6 1.7 75 1.8 W 56 78 30 42 - - 0.0
14/02:19pm 7.2 -5.3 2.1 70 2.3 W 57 91 31 49 - - 0.0
14/02:17pm 7.3 -5.5 2.4 71 2.2 W 59 91 32 49 - - 0.0
14/02:00pm 6.4 -8.5 2.3 75 1.8 W 70 93 38 50 - - 0.0
14/01:30pm 6.6 -7.7 2.7 76 1.8 W 67 91 36 49 - - 0.0
14/01:00pm 6.2 -9.4 2.5 77 1.6 W 74 98 40 53 - - 0.0
14/12:30pm 6.7 -8.3 3.9 82 1.3 W 72 100 39 54 - - 0.0
14/12:00pm 6.5 -8.6 3.3 80 1.5 W 72 104 39 56 - - 0.0
14/11:59am 6.3 -8.5 3.1 80 1.4 W 70 104 38 56 - - 0.0
14/11:48am 6.4 -8.2 4.2 86 1.0 W 70 95 38 51 - - 0.0
14/11:46am 6.0 -9.4 3.8 86 1.0 W 74 98 40 53 - - 0.0
14/11:36am 6.7 -9.9 3.3 79 1.5 W 80 100 43 54 - - 0.0
14/11:30am 7.2 -10.0 3.3 76 1.8 W 83 100 45 54 - - 0.0
14/11:00am 5.9 -13.2 3.2 83 1.2 W 93 113 50 61 - - 0.0
14/10:30am 5.6 -12.3 3.8 88 0.8 W 87 119 47 64 - - 0.0
14/10:23am 5.5 -12.4 3.5 87 0.9 W 87 113 47 61 - - 0.0
14/10:20am 5.6 -11.5 3.9 89 0.8 W 83 106 45 57 - - 0.0
14/10:00am 5.0 -9.4 4.1 94 0.4 W 69 100 37 54 - - 0.0
14/09:30am 5.1 -10.4 3.3 88 0.8 W 74 100 40 54 - - 0.0
14/09:00am 4.7 -8.8 2.9 88 0.8 WSW 63 87 34 47 - - 1.8
14/08:30am 4.2 -9.2 3.2 93 0.4 WSW 63 87 34 47 - - 1.8
14/08:08am 3.6 -9.4 3.6 100 0.0 WSW 61 80 33 43 - - 1.8
14/08:00am 3.4 -10.0 3.4 100 0.0 WSW 63 80 34 43 - - 1.8
14/07:30am 3.2 -9.5 3.2 100 0.0 WSW 59 82 32 44 - - 1.8
14/07:00am 3.1 -11.1 3.1 100 0.0 WSW 67 85 36 46 - - 1.8
14/06:31am 3.2 -9.9 3.2 100 0.0 WSW 61 83 33 45 - - 1.8
14/06:30am 3.2 -9.9 3.2 100 0.0 WSW 61 76 33 41 - - 1.8
14/06:00am 3.0 -9.3 3.0 100 0.0 WSW 57 76 31 41 - - 1.8
14/05:30am 3.0 -10.5 3.0 100 0.0 W 63 87 34 47 - - 1.8
14/05:00am 2.8 -11.5 2.8 100 0.0 W 67 91 36 49 - - 1.8
14/04:30am 2.5 -9.9 2.5 100 0.0 WSW 57 80 31 43 - - 1.8
14/04:00am 2.3 -10.9 2.3 100 0.0 WSW 61 89 33 48 - - 1.8
14/03:31am 2.0 -9.6 2.0 100 0.0 WSW 52 78 28 42 - - 1.8
14/03:30am 1.9 -9.7 1.9 100 0.0 WSW 52 69 28 37 - - 1.8
14/03:00am 1.7 -8.8 1.7 100 0.0 WSW 46 69 25 37 - - 1.8
14/02:41am 1.5 -9.4 1.5 100 0.0 WSW 48 70 26 38 - - 1.8
14/02:30am 1.3 -9.2 1.3 100 0.0 WSW 46 63 25 34 - - 1.8
14/02:00am 0.9 -11.6 0.9 100 0.0 WSW 56 80 30 43 - - 1.8
14/01:30am 0.3 -9.8 0.2 99 0.0 WSW 43 69 23 37 - - 1.8
14/01:03am 0.1 -11.0 0.0 99 0.0 WSW 48 67 26 36 - - 1.8
14/01:00am 0.1 -11.4 0.0 99 0.0 WSW 50 67 27 36 - - 1.8
14/12:44am 0.1 -11.0 -0.2 98 0.1 WSW 48 69 26 37 - - 1.8
14/12:30am 0.1 -13.1 -0.2 98 0.1 WSW 59 76 32 41 - - 1.8
14/12:00am 0.1 -12.8 -0.9 93 0.4 WSW 57 72 31 39 - - 1.8
 
Date/Time
EDT
Temp
°C
App
Temp
°C
Dew
Point
°C
Rel
Hum
%
Delta-T
°C
Wind Press
QNH
hPa
Press
MSL
hPa
Rain since
9am
mm
Dir  Spd
km/h
Gust
km/h
Spd
kts
Gust
kts
13/11:30pm 0.0 -15.2 -1.0 93 0.4 WSW 69 96 37 52 - - 1.8
13/11:23pm -0.3 -15.5 -1.0 95 0.3 WSW 69 89 37 48 - - 1.8
13/11:00pm -0.2 -15.4 -0.9 95 0.3 WSW 69 83 37 45 - - 1.8
13/10:35pm -0.2 -16.4 -1.2 93 0.4 WSW 74 95 40 51 - - 1.8
13/10:30pm -0.1 -16.3 -0.9 94 0.3 WSW 74 91 40 49 - - 1.8
13/10:22pm -0.1 -15.4 -0.4 98 0.1 WSW 70 87 38 47 - - 1.8
13/10:00pm 0.0 -12.3 -0.1 99 0.0 WSW 54 76 29 41 - - 1.8
13/09:30pm 0.0 -13.2 -0.3 98 0.1 WSW 59 80 32 43 - - 1.8
13/09:00pm 0.0 -13.7 -0.6 96 0.2 WSW 61 82 33 44 - - 1.8
13/08:30pm -0.2 -16.4 -1.0 94 0.3 WSW 74 98 40 53 - - 1.8
13/08:00pm -0.5 -17.6 -1.8 91 0.5 WSW 78 98 42 53 - - 1.8
13/07:30pm -0.5 -17.1 -1.1 96 0.2 WSW 76 96 41 52 - - 1.8
13/07:00pm -0.5 -17.4 -0.8 98 0.1 WSW 78 98 42 53 - - 1.8
13/06:37pm -0.3 -15.5 -0.4 99 0.0 WSW 69 91 37 49 - - 1.8
13/06:30pm -0.3 -15.6 -0.4 99 0.0 WSW 70 85 38 46 - - 1.8
13/06:00pm 0.0 -17.2 -0.1 99 0.0 WSW 80 102 43 55 - - 1.6
13/05:38pm 0.0 -15.3 -0.3 98 0.1 WSW 70 102 38 55 - - 1.6
13/05:37pm 0.0 -14.8 -0.3 98 0.1 WSW 67 96 36 52 - - 1.6
13/05:30pm 0.0 -12.7 -0.6 96 0.2 WSW 56 82 30 44 - - 1.6
13/05:00pm 0.7 -13.6 0.0 95 0.3 WSW 65 85 35 46 - - 1.6
13/04:30pm 0.3 -15.4 -0.1 97 0.2 WSW 72 91 39 49 - - 1.6
13/04:08pm 0.4 -14.8 0.3 99 0.0 WSW 70 98 38 53 - - 1.6
13/04:07pm 0.4 -14.6 0.3 99 0.0 WSW 69 98 37 53 - - 1.6
13/04:00pm 0.2 -12.6 0.1 99 0.0 WSW 57 87 31 47 - - 1.6
13/03:30pm 0.1 -15.0 0.0 99 0.0 WSW 69 96 37 52 - - 1.6
13/03:01pm 0.9 -13.0 0.5 97 0.2 WSW 63 85 34 46 - - 1.4
13/03:00pm 1.0 -12.5 0.6 97 0.2 WSW 61 78 33 42 - - 1.4
13/02:40pm 0.7 -11.9 0.0 95 0.3 WSW 56 74 30 40 - - 1.4
13/02:30pm 1.5 -12.7 0.6 94 0.4 WSW 65 95 35 51 - - 1.4
13/02:01pm 0.9 -14.7 0.6 98 0.1 WSW 72 96 39 52 - - 1.2
13/02:00pm 1.0 -14.2 0.7 98 0.1 WSW 70 91 38 49 - - 1.2
13/01:58pm 1.0 -13.6 0.7 98 0.1 WSW 67 91 36 49 - - 1.2
13/01:52pm 1.2 -11.5 0.8 97 0.2 WSW 57 78 31 42 - - 1.2
13/01:44pm 1.9 -11.9 1.3 96 0.2 WSW 63 87 34 47 - - 1.2
13/01:30pm 2.5 -13.4 1.2 91 0.5 WSW 74 100 40 54 - - 1.2
13/01:07pm 2.8 -13.7 2.2 96 0.3 WSW 78 120 42 65 - - 1.2
13/01:00pm 2.8 -12.1 2.7 99 0.0 WSW 70 95 38 51 - - 1.2
13/12:30pm 2.7 -12.2 2.7 100 0.0 WSW 70 98 38 53 - - 1.2
13/12:00pm 1.6 -11.7 1.5 99 0.0 W 61 83 33 45 - - 0.6
13/11:37am 1.7 -14.5 1.4 98 0.1 W 76 119 41 64 - - 0.0
13/11:33am 1.9 -13.9 1.6 98 0.1 W 74 119 40 64 - - 0.0
13/11:30am 2.3 -12.1 2.0 98 0.1 W 67 96 36 52 - - 0.0
13/11:00am 2.0 -15.4 1.3 95 0.3 W 82 104 44 56 - - 0.0
13/10:30am 2.1 -15.2 1.5 96 0.3 W 82 119 44 64 - - 0.0
13/10:00am 1.2 -15.5 0.8 97 0.2 W 78 102 42 55 - - 0.0
13/09:30am 1.2 -16.6 -0.1 91 0.5 W 83 119 45 64 - - 0.0
13/09:13am 0.9 -16.9 -0.2 92 0.4 WSW 83 122 45 66 - - 0.0
13/09:00am 0.8 -15.3 -0.1 94 0.4 WSW 74 98 40 53 - - 0.8
13/08:30am -0.6 -16.4 -0.9 98 0.1 WSW 72 96 39 52 - - 0.8
13/08:00am -1.2 -18.2 -1.5 98 0.1 WSW 78 104 42 56 - - 0.8
13/07:30am -1.7 -18.0 -2.0 98 0.0 WSW 74 93 40 50 - - 0.8
13/07:00am -1.5 -15.3 -1.8 98 0.0 WSW 61 98 33 53 - - 0.8
13/06:55am -1.6 -15.4 -1.9 98 0.0 WSW 61 98 33 53 - - 0.8
13/06:31am -1.9 -13.7 -2.2 98 0.0 WSW 50 70 27 38 - - 0.8
13/06:30am -2.0 -13.4 -2.3 98 0.0 WSW 48 65 26 35 - - 0.8
13/06:00am -2.3 -13.4 -2.6 98 0.0 WSW 46 67 25 36 - - 0.8
13/05:48am -2.4 -12.9 -2.7 98 0.0 SW 43 65 23 35 - - 0.8
13/05:30am -2.5 -13.6 -2.9 97 0.0 WSW 46 63 25 34 - - 0.8
13/05:00am -2.7 -13.8 -3.1 97 0.0 WSW 46 61 25 33 - - 0.8
13/04:30am -2.8 -15.5 -3.2 97 0.0 WSW 54 76 29 41 - - 0.8
13/04:01am -3.1 -16.4 -3.5 97 0.0 WSW 57 76 31 41 - - 0.8
13/04:00am -3.1 -16.4 -3.5 97 0.0 WSW 57 76 31 41 - - 0.8
13/03:45am -3.0 -15.3 -3.4 97 0.0 WSW 52 72 28 39 - - 0.8
13/03:30am -2.9 -15.6 -3.3 97 0.0 WSW 54 65 29 35 - - 0.8
13/03:19am -3.0 -16.3 -3.4 97 0.0 WSW 57 78 31 42 - - 0.8
13/03:00am -2.9 -18.6 -3.3 97 0.0 WSW 70 93 38 50 - - 0.8

Other formats

Comma delimited format used in spreadsheet applications
http://www.bom.gov.au/fwo/IDT60801/IDT60801.95979.axf

JavaScript Object Notation format (JSON) in row-major order
http://www.bom.gov.au/fwo/IDT60801/IDT60801.95979.json

Data quality

Most of these data are generated automatically and are frequently updated. Quality checks on data are not normally performed. It is possible for incorrect values to appear. Refer to information at About Latest Weather Observations and please check the disclaimer before using these data.